Airfield :
LOGIN :

Register | Disclaimer

   EN    FR    IT 

 










Legend :    VFR   Marginal VFR   IFR   Intensive IFR   Very Intensive IFR
Visi :
Ceiling :
>= 8 km
>= 3000ft
5 to 8 km
1000 to 3000 ft
1500m to 5 km
500 to 1000 ft
800 to 1500m
200 to 500 ft
< 800m
< 200 ft
Symbols :   Thunderstorms  Fog  Heavy snow  Heavy precipitations  Wind > 20 kt
SIGMETs :     Misc.  Thunderstorms  Icing  Turbulence  Mountain Waves  Volcanic Ashes






- Airport Elevation : -11 ft
- IATA code : AMS


EHAM - Amsterdam Schiphol

CURRENT METAR :
  • 192025Z 12009KT CAVOK 09/06 Q1015 NOSIG

EXPIRED METARs :
  • 191955Z 13009KT CAVOK 09/06 Q1015 NOSIG
  • 191925Z 12008KT CAVOK 09/06 Q1016 NOSIG
  • 191855Z 12007KT CAVOK 08/05 Q1016 NOSIG
  • 191825Z 12007KT CAVOK 08/05 Q1016 NOSIG
  • 191755Z 12008KT CAVOK 08/05 Q1016 NOSIG

TAF TAF EHAM
Valid from the 19 at 18:00 until the 21 at 00:00 UTC


191722Z 1918/2024 15008KT CAVOK
BECMG 2008/2010 19014KT -RA BKN018
TEMPO 2009/2016 4500 RA SCT008 BKN012
BECMG 2016/2019 18009KT NSW SCT012
BECMG 2022/2024 6000



MET'MAP, your aeronautical weather chart ! - Copyright ORBIFLY December 2007 - Disclaimer

ORBIFLY MET'MAP TEAM :

Programming & Development : Alexandra Zaïnal
Concept & original design : Baudouin d'Aumeries
Assistance for programming : Marc-Olivier Méhu
Technical & hardware support : Manuel Goepfert

Contact : metmap@orbifly.com




SOURCES & CREDITS :

   NOAA